Time;durP1;ratioP1;P1;durP2;ratioP2;P2;SDS_P1;SDS_P2;PMS_P1;PMS_P2;Temp;Humidity;BMP_temperature;BMP_pressure;BME280_temperature;BME280_humidity;BME280_pressure;Samples;Min_cycle;Max_cycle;Signal;HPM_P1;HPM_P2
2021/01/06 00:02:22;;;;;;;;;;;;;;;7.20;66.69;100961.75;6029932;23;96796;-77
2021/01/06 00:04:48;;;;;;;;;;;;;;;7.33;65.84;100965.03;6036061;23;96920;-76
2021/01/06 00:07:13;;;;;;;;;;;;;;;7.45;65.40;100969.19;6031238;23;98939;-77
2021/01/06 00:09:40;;;;;;;;;;;;;;;7.52;65.08;100968.16;6030898;23;98862;-76
2021/01/06 00:12:07;;;;;;;;;;;;;;;7.37;66.02;100969.31;6031979;23;96722;-77
2021/01/06 00:14:33;;;;;;;;;;;;;;;7.27;66.05;100967.78;6030732;23;96857;-76
2021/01/06 00:16:58;;;;;;;;;;;;;;;6.92;67.33;100963.13;6030095;23;98961;-77
2021/01/06 00:19:24;;;;;;;;;;;;;;;7.00;67.31;100966.50;6030410;23;99228;-78
2021/01/06 00:21:50;;;;;;;;;;;;;;;7.40;66.56;100961.38;6030528;23;96765;-76
2021/01/06 00:24:16;;;;;;;;;;;;;;;7.57;66.25;100963.69;6030848;23;96808;-76
2021/01/06 00:26:43;;;;;;;;;;;;;;;7.02;67.36;100956.81;6030560;23;99220;-78
2021/01/06 00:29:09;;;;;;;;;;;;;;;7.41;65.88;100954.38;6029994;23;98832;-76
2021/01/06 00:31:38;;;;;;;;;;;;;;;7.53;65.28;100955.00;6030423;23;97177;-78
2021/01/06 00:34:04;;;;;;;;;;;;;;;7.79;64.72;100959.72;6028955;23;97484;-76
2021/01/06 00:36:30;;;;;;;;;;;;;;;7.58;65.47;100953.13;6030446;23;98896;-77
2021/01/06 00:38:56;;;;;;;;;;;;;;;7.83;64.74;100950.00;6029954;23;98790;-76
2021/01/06 00:41:26;;;;;;;;;;;;;;;7.65;65.16;100950.38;6031948;23;96818;-77
2021/01/06 00:43:52;;;;;;;;;;;;;;;7.57;65.39;100950.53;6031229;23;96844;-76
2021/01/06 00:46:18;;;;;;;;;;;;;;;7.81;64.96;100955.28;6030521;23;98935;-76
2021/01/06 00:48:44;;;;;;;;;;;;;;;7.81;64.45;100951.81;6030348;23;99182;-77
2021/01/06 00:51:10;;;;;;;;;;;;;;;7.93;63.57;100952.41;6030298;23;96784;-77
2021/01/06 00:53:35;;;;;;;;;;;;;;;8.34;62.80;100951.50;6030952;23;96837;-76
2021/01/06 00:56:01;;;;;;;;;;;;;;;8.45;62.66;100945.13;6030337;23;99241;-76
2021/01/06 00:58:27;;;;;;;;;;;;;;;8.49;62.01;100946.78;6030238;23;99028;-77
2021/01/06 01:00:54;;;;;;;;;;;;;;;8.43;62.87;100939.91;6029874;23;97146;-76
2021/01/06 01:03:20;;;;;;;;;;;;;;;8.23;62.54;100942.97;6029865;23;96900;-77
2021/01/06 01:05:46;;;;;;;;;;;;;;;7.36;65.20;100936.03;6030466;23;98951;-77
2021/01/06 01:08:12;;;;;;;;;;;;;;;7.65;65.11;100945.13;6031072;23;99122;-76
2021/01/06 01:10:39;;;;;;;;;;;;;;;7.65;65.10;100937.22;6032654;23;96853;-76
2021/01/06 01:13:06;;;;;;;;;;;;;;;7.42;65.81;100938.53;6031828;23;96820;-76
2021/01/06 01:15:32;;;;;;;;;;;;;;;7.38;65.35;100936.00;6035025;23;99453;-77
2021/01/06 01:17:59;;;;;;;;;;;;;;;7.23;66.04;100942.41;6037488;23;99164;-76
2021/01/06 01:20:25;;;;;;;;;;;;;;;7.31;65.38;100937.88;6033719;23;96870;-78
2021/01/06 01:22:51;;;;;;;;;;;;;;;7.16;65.03;100933.78;6033278;23;96826;-76
2021/01/06 01:25:18;;;;;;;;;;;;;;;7.40;64.76;100923.72;6032543;23;98940;-76
2021/01/06 01:27:43;;;;;;;;;;;;;;;7.17;65.63;100927.63;6030938;23;98834;-77
2021/01/06 01:30:11;;;;;;;;;;;;;;;7.21;65.27;100923.22;6032673;23;96984;-77
2021/01/06 01:32:39;;;;;;;;;;;;;;;6.91;66.45;100914.09;6032056;23;96854;-77
2021/01/06 01:35:07;;;;;;;;;;;;;;;7.27;65.36;100920.47;6032039;23;98947;-77
2021/01/06 01:37:33;;;;;;;;;;;;;;;7.31;64.29;100914.22;6031316;23;99835;-77
2021/01/06 01:39:58;;;;;;;;;;;;;;;7.34;64.60;100916.81;6032210;23;96660;-78
2021/01/06 01:42:24;;;;;;;;;;;;;;;6.85;66.92;100903.72;6031771;23;96885;-77
2021/01/06 01:45:00;;;;;;;;;;;;;;;7.18;65.98;100897.84;6032012;23;99200;-78
2021/01/06 01:47:32;;;;;;;;;;;;;;;7.04;66.55;100898.97;6030570;23;99126;-78
2021/01/06 01:49:59;;;;;;;;;;;;;;;6.60;67.81;100899.78;6028216;23;96999;-77
2021/01/06 01:52:29;;;;;;;;;;;;;;;6.84;67.27;100896.72;6029967;23;97080;-77
2021/01/06 01:54:55;;;;;;;;;;;;;;;7.31;65.11;100893.19;6030444;23;99345;-78
2021/01/06 01:57:25;;;;;;;;;;;;;;;6.75;66.56;100889.88;6032045;23;99224;-77
2021/01/06 01:59:54;;;;;;;;;;;;;;;6.90;67.12;100890.47;6031254;23;97047;-77
2021/01/06 02:02:24;;;;;;;;;;;;;;;6.93;66.55;100896.56;6030928;23;96817;-77
2021/01/06 02:04:53;;;;;;;;;;;;;;;7.26;65.64;100895.06;6031608;23;99306;-77
2021/01/06 02:07:20;;;;;;;;;;;;;;;7.13;65.87;100899.69;6031484;23;98944;-78
2021/01/06 02:09:51;;;;;;;;;;;;;;;7.31;65.54;100890.56;6032396;23;96970;-77
2021/01/06 02:12:21;;;;;;;;;;;;;;;6.88;66.72;100892.28;6031721;23;96663;-77
2021/01/06 02:14:54;;;;;;;;;;;;;;;6.87;66.80;100891.44;6034302;23;98929;-78
2021/01/06 02:17:19;;;;;;;;;;;;;;;7.11;65.70;100883.06;6031807;23;100760;-78
2021/01/06 02:19:46;;;;;;;;;;;;;;;7.58;64.21;100882.13;6031237;23;96949;-77
2021/01/06 02:22:14;;;;;;;;;;;;;;;7.12;65.15;100881.31;6032092;23;97144;-77
2021/01/06 02:24:40;;;;;;;;;;;;;;;7.45;64.41;100887.66;6030054;23;98845;-77
2021/01/06 02:27:06;;;;;;;;;;;;;;;7.57;63.47;100875.13;6031107;23;98921;-77
2021/01/06 02:29:34;;;;;;;;;;;;;;;7.67;63.49;100874.94;6031439;23;96992;-77
2021/01/06 02:32:00;;;;;;;;;;;;;;;7.13;65.04;100872.53;6032050;23;96787;-77
2021/01/06 02:34:26;;;;;;;;;;;;;;;7.08;64.91;100866.53;6042111;23;99008;-77
2021/01/06 02:36:52;;;;;;;;;;;;;;;6.84;66.07;100862.56;6032945;23;98961;-77
2021/01/06 02:39:19;;;;;;;;;;;;;;;7.52;64.37;100863.84;6032345;23;96824;-77
2021/01/06 02:41:47;;;;;;;;;;;;;;;7.40;64.69;100865.88;6030654;23;96839;-77
2021/01/06 02:44:12;;;;;;;;;;;;;;;7.35;65.14;100858.06;6030672;23;99286;-76
2021/01/06 02:46:38;;;;;;;;;;;;;;;7.20;65.42;100848.75;6031234;23;99179;-77
2021/01/06 02:49:05;;;;;;;;;;;;;;;7.00;65.30;100845.66;6031907;23;96657;-77
2021/01/06 02:51:37;;;;;;;;;;;;;;;6.47;67.32;100846.63;6031621;23;97159;-77
2021/01/06 02:54:05;;;;;;;;;;;;;;;6.61;66.81;100847.25;6030842;23;99377;-77
2021/01/06 02:56:32;;;;;;;;;;;;;;;6.95;66.02;100841.38;6031622;23;99383;-77
2021/01/06 02:58:59;;;;;;;;;;;;;;;6.65;66.51;100845.41;6032061;23;96741;-77
2021/01/06 03:01:27;;;;;;;;;;;;;;;6.90;65.66;100843.19;6030804;23;96797;-76
2021/01/06 03:03:54;;;;;;;;;;;;;;;6.45;67.29;100848.38;6030714;23;98948;-77
2021/01/06 03:06:22;;;;;;;;;;;;;;;6.36;67.17;100845.94;6030675;23;99234;-76
2021/01/06 03:08:48;;;;;;;;;;;;;;;6.13;68.49;100838.41;6030548;23;96759;-76
2021/01/06 03:11:14;;;;;;;;;;;;;;;6.66;66.85;100837.53;6038056;23;96801;-77
2021/01/06 03:13:41;;;;;;;;;;;;;;;6.63;67.32;100829.69;6031314;23;99220;-77
2021/01/06 03:16:07;;;;;;;;;;;;;;;6.67;66.73;100834.00;6031708;23;98823;-76
2021/01/06 03:18:33;;;;;;;;;;;;;;;6.33;66.70;100822.34;6032136;23;96709;-76
2021/01/06 03:21:01;;;;;;;;;;;;;;;6.48;67.27;100821.22;6031887;23;96797;-77
2021/01/06 03:23:30;;;;;;;;;;;;;;;5.98;68.19;100817.66;6032002;23;98950;-77
2021/01/06 03:25:57;;;;;;;;;;;;;;;6.49;67.01;100815.97;6031651;23;98991;-76
2021/01/06 03:28:23;;;;;;;;;;;;;;;6.82;66.03;100817.09;6034240;23;98014;-76
2021/01/06 03:30:51;;;;;;;;;;;;;;;7.00;66.27;100821.13;6032706;23;96884;-78
2021/01/06 03:33:20;;;;;;;;;;;;;;;7.22;64.31;100821.56;6037934;23;99276;-76
2021/01/06 03:35:48;;;;;;;;;;;;;;;6.47;66.48;100812.50;6039945;23;98888;-77
2021/01/06 03:38:20;;;;;;;;;;;;;;;7.08;65.37;100806.09;6037714;23;96693;-77
2021/01/06 03:40:47;;;;;;;;;;;;;;;7.01;65.29;100810.59;6041713;23;97334;-74
2021/01/06 03:43:13;;;;;;;;;;;;;;;7.28;63.89;100809.16;6040130;23;97876;-75
2021/01/06 03:45:41;;;;;;;;;;;;;;;6.47;67.00;100807.25;6039809;23;99264;-76
2021/01/06 03:48:15;;;;;;;;;;;;;;;6.80;66.01;100806.63;6039306;23;96874;-76
2021/01/06 03:50:42;;;;;;;;;;;;;;;6.51;66.79;100811.53;6032254;23;96704;-76
2021/01/06 03:53:16;;;;;;;;;;;;;;;6.67;66.15;100802.50;6030366;23;99376;-76
2021/01/06 03:55:48;;;;;;;;;;;;;;;6.64;66.53;100802.53;6033943;23;101172;-76
2021/01/06 03:58:17;;;;;;;;;;;;;;;6.51;67.06;100798.41;6043659;23;96607;-77
2021/01/06 04:00:48;;;;;;;;;;;;;;;6.70;66.27;100805.03;6054230;23;96665;-76
2021/01/06 04:03:30;;;;;;;;;;;;;;;7.13;64.80;100791.09;6057734;23;97811;-78
2021/01/06 04:05:56;;;;;;;;;;;;;;;6.83;65.98;100802.22;6057569;23;98028;-77
2021/01/06 04:08:26;;;;;;;;;;;;;;;6.48;67.08;100798.47;6055993;23;97043;-77
2021/01/06 04:10:56;;;;;;;;;;;;;;;6.55;66.39;100788.72;6056821;23;96572;-77
2021/01/06 04:13:22;;;;;;;;;;;;;;;5.92;68.46;100787.16;6047945;23;97837;-76
2021/01/06 04:15:48;;;;;;;;;;;;;;;6.13;68.29;100788.56;6033730;23;98327;-77
2021/01/06 04:18:14;;;;;;;;;;;;;;;5.91;68.89;100789.81;6032336;23;96674;-76
2021/01/06 04:20:41;;;;;;;;;;;;;;;6.26;68.14;100776.13;6031404;23;96817;-77
2021/01/06 04:23:08;;;;;;;;;;;;;;;6.55;66.90;100779.09;6031381;23;98877;-78
2021/01/06 04:25:35;;;;;;;;;;;;;;;6.22;67.40;100775.31;6032782;23;99218;-77
2021/01/06 04:28:04;;;;;;;;;;;;;;;6.93;65.55;100780.09;6032073;23;96688;-77
2021/01/06 04:30:32;;;;;;;;;;;;;;;6.47;66.66;100781.00;6031975;23;96878;-77
2021/01/06 04:32:58;;;;;;;;;;;;;;;6.58;66.82;100780.78;6034011;23;99705;-77
2021/01/06 04:35:25;;;;;;;;;;;;;;;7.30;63.62;100770.56;6034420;23;98880;-77
2021/01/06 04:37:51;;;;;;;;;;;;;;;7.32;63.53;100771.41;6035144;23;97083;-77
2021/01/06 04:40:19;;;;;;;;;;;;;;;7.05;63.84;100775.47;6034322;23;96884;-77
2021/01/06 04:42:45;;;;;;;;;;;;;;;6.84;64.78;100775.91;6034531;23;99111;-76
2021/01/06 04:45:12;;;;;;;;;;;;;;;6.23;66.74;100777.06;6045274;23;98830;-77
2021/01/06 04:47:50;;;;;;;;;;;;;;;6.71;66.10;100775.28;6048770;23;96564;-77
2021/01/06 04:50:34;;;;;;;;;;;;;;;6.42;66.55;100767.09;6043900;23;96771;-76
2021/01/06 04:53:06;;;;;;;;;;;;;;;6.29;66.03;100769.06;6041721;23;99328;-75
2021/01/06 04:55:36;;;;;;;;;;;;;;;5.90;67.89;100767.97;6040665;23;99192;-77
2021/01/06 04:58:14;;;;;;;;;;;;;;;6.34;65.90;100777.72;6045072;23;96822;-75
2021/01/06 05:00:47;;;;;;;;;;;;;;;7.02;64.60;100769.44;6051384;23;96648;-78
2021/01/06 05:03:20;;;;;;;;;;;;;;;6.92;63.72;100767.88;6046634;23;98481;-75
2021/01/06 05:05:55;;;;;;;;;;;;;;;6.56;64.83;100774.72;6039044;23;99068;-77
2021/01/06 05:08:27;;;;;;;;;;;;;;;7.04;63.66;100772.88;6043698;23;96591;-75
2021/01/06 05:10:55;;;;;;;;;;;;;;;6.80;63.84;100768.97;6034272;23;97261;-76
2021/01/06 05:13:24;;;;;;;;;;;;;;;6.28;65.51;100774.34;6033741;23;99447;-76
2021/01/06 05:15:53;;;;;;;;;;;;;;;6.57;64.72;100777.28;6033523;23;99430;-77
2021/01/06 05:18:19;;;;;;;;;;;;;;;6.28;65.83;100769.97;6032981;23;97193;-77
2021/01/06 05:20:45;;;;;;;;;;;;;;;6.20;66.24;100763.97;6032771;23;96805;-77
2021/01/06 05:23:17;;;;;;;;;;;;;;;6.33;65.67;100767.25;6032799;23;98851;-77
2021/01/06 05:25:44;;;;;;;;;;;;;;;6.38;65.22;100765.38;6028002;23;98896;-76
2021/01/06 05:28:11;;;;;;;;;;;;;;;6.78;64.40;100766.38;6029509;23;96804;-76
2021/01/06 05:30:37;;;;;;;;;;;;;;;6.95;62.84;100765.19;6028536;23;96875;-76
2021/01/06 05:33:05;;;;;;;;;;;;;;;6.23;64.99;100763.06;6028336;23;98802;-76
2021/01/06 05:35:35;;;;;;;;;;;;;;;6.62;64.29;100764.97;6027695;23;99337;-76
2021/01/06 05:38:02;;;;;;;;;;;;;;;5.78;66.65;100757.63;6028210;23;96827;-76
2021/01/06 05:40:30;;;;;;;;;;;;;;;7.02;63.20;100764.16;6028471;23;97181;-76
2021/01/06 05:42:58;;;;;;;;;;;;;;;6.88;63.06;100763.59;6028225;23;99440;-76
2021/01/06 05:45:25;;;;;;;;;;;;;;;7.26;61.64;100766.28;6028085;23;98935;-76
2021/01/06 05:47:52;;;;;;;;;;;;;;;6.51;64.54;100761.66;6028180;23;97225;-76
2021/01/06 05:50:21;;;;;;;;;;;;;;;6.15;65.53;100757.06;6027823;23;96978;-77
2021/01/06 05:52:53;;;;;;;;;;;;;;;6.71;63.43;100759.50;6028902;23;99577;-77
2021/01/06 05:55:20;;;;;;;;;;;;;;;6.68;64.04;100762.22;6028263;23;99395;-76
2021/01/06 05:57:48;;;;;;;;;;;;;;;6.88;63.34;100758.31;6028410;23;96711;-76
2021/01/06 06:00:24;;;;;;;;;;;;;;;7.28;61.86;100753.97;6024806;23;97689;-76
2021/01/06 06:02:58;;;;;;;;;;;;;;;7.48;60.96;100749.09;6027905;23;98952;-76
2021/01/06 06:05:36;;;;;;;;;;;;;;;7.59;60.06;100747.13;6028135;23;98902;-76
2021/01/06 06:08:22;;;;;;;;;;;;;;;7.72;59.52;100741.56;6027296;23;96729;-76
2021/01/06 06:10:54;;;;;;;;;;;;;;;7.19;61.08;100752.41;6026443;23;97107;-76
2021/01/06 06:13:45;;;;;;;;;;;;;;;7.07;61.04;100754.44;6027715;23;99586;-76
2021/01/06 06:16:28;;;;;;;;;;;;;;;6.92;61.07;100746.84;6028231;23;99049;-76
2021/01/06 06:19:11;;;;;;;;;;;;;;;6.62;62.84;100754.47;6029703;23;96764;-75
2021/01/06 06:21:43;;;;;;;;;;;;;;;6.14;64.44;100740.47;6012990;23;97064;-75
2021/01/06 06:24:32;;;;;;;;;;;;;;;6.44;64.34;100748.66;6029166;23;98169;-75
2021/01/06 06:27:02;;;;;;;;;;;;;;;6.66;62.97;100745.63;6027726;23;98818;-76
2021/01/06 06:29:33;;;;;;;;;;;;;;;6.57;63.76;100743.16;6028883;23;97053;-75
2021/01/06 06:32:01;;;;;;;;;;;;;;;7.35;60.98;100737.13;6029925;23;96798;-76
2021/01/06 06:34:28;;;;;;;;;;;;;;;7.12;61.04;100742.03;6029277;23;98897;-75
2021/01/06 06:37:04;;;;;;;;;;;;;;;7.96;58.85;100743.59;6033491;23;97808;-76
2021/01/06 06:39:31;;;;;;;;;;;;;;;7.97;58.75;100738.28;6034663;23;96975;-76
2021/01/06 06:42:02;;;;;;;;;;;;;;;7.41;60.20;100737.03;6033992;23;96788;-76
2021/01/06 06:44:30;;;;;;;;;;;;;;;7.34;60.69;100730.19;6031635;23;98586;-76
2021/01/06 06:47:02;;;;;;;;;;;;;;;7.14;60.78;100730.63;6030914;23;98869;-77
2021/01/06 06:49:33;;;;;;;;;;;;;;;7.31;60.53;100724.97;6028591;23;96718;-75
2021/01/06 06:52:04;;;;;;;;;;;;;;;7.15;60.93;100736.75;6028246;23;96849;-77
2021/01/06 06:54:42;;;;;;;;;;;;;;;6.47;62.73;100739.00;6028690;23;98966;-77
2021/01/06 06:57:13;;;;;;;;;;;;;;;6.52;62.22;100731.88;6028680;23;98966;-76
2021/01/06 06:59:47;;;;;;;;;;;;;;;5.68;66.01;100736.84;6028685;23;96676;-75
2021/01/06 07:02:14;;;;;;;;;;;;;;;6.04;63.96;100732.78;6028102;23;96790;-76
2021/01/06 07:04:42;;;;;;;;;;;;;;;6.59;62.29;100730.00;6027535;23;99073;-76
2021/01/06 07:07:21;;;;;;;;;;;;;;;6.82;61.29;100734.81;6027498;23;99195;-76
2021/01/06 07:09:50;;;;;;;;;;;;;;;7.02;60.34;100738.72;6029345;23;96770;-76
2021/01/06 07:12:16;;;;;;;;;;;;;;;7.06;60.47;100744.81;6029423;23;96947;-77
2021/01/06 07:14:48;;;;;;;;;;;;;;;7.27;59.90;100727.72;6043722;23;99208;-77
2021/01/06 07:17:27;;;;;;;;;;;;;;;7.70;58.71;100727.56;6033775;23;98974;-76
2021/01/06 07:19:54;;;;;;;;;;;;;;;7.51;59.01;100732.41;6044626;23;96613;-77
2021/01/06 07:22:22;;;;;;;;;;;;;;;7.77;57.98;100742.31;6045809;23;96714;-77
2021/01/06 07:24:52;;;;;;;;;;;;;;;8.05;57.61;100732.84;6033964;23;98256;-76
2021/01/06 07:27:19;;;;;;;;;;;;;;;7.85;57.51;100743.00;6027420;23;99938;-77
2021/01/06 07:29:47;;;;;;;;;;;;;;;8.13;56.75;100737.91;6004602;23;97047;-77
2021/01/06 07:32:13;;;;;;;;;;;;;;;8.30;56.43;100741.88;6003232;23;96904;-77
2021/01/06 07:34:42;;;;;;;;;;;;;;;8.16;56.72;100743.97;6003635;23;98891;-77
2021/01/06 07:37:20;;;;;;;;;;;;;;;8.18;56.34;100750.06;5999944;23;99185;-77
2021/01/06 07:39:46;;;;;;;;;;;;;;;8.44;55.74;100744.13;6000474;23;97195;-77
2021/01/06 07:42:27;;;;;;;;;;;;;;;8.18;56.86;100741.28;5999112;23;96826;-78
2021/01/06 07:45:08;;;;;;;;;;;;;;;8.20;57.07;100744.75;6001361;23;99212;-76
2021/01/06 07:47:35;;;;;;;;;;;;;;;8.29;56.31;100742.72;6000116;23;99611;-77
2021/01/06 07:50:09;;;;;;;;;;;;;;;8.03;56.81;100734.66;6000665;23;96877;-77
2021/01/06 07:52:48;;;;;;;;;;;;;;;7.80;57.29;100734.34;6001188;23;96815;-78
2021/01/06 07:55:20;;;;;;;;;;;;;;;7.93;56.83;100751.56;5999263;23;98074;-78
2021/01/06 07:57:49;;;;;;;;;;;;;;;7.97;56.75;100743.56;5997738;23;98813;-78
2021/01/06 08:00:16;;;;;;;;;;;;;;;8.12;56.93;100744.09;5998186;23;96988;-78
2021/01/06 08:02:47;;;;;;;;;;;;;;;7.92;57.03;100734.06;5999143;23;97076;-78
2021/01/06 08:05:22;;;;;;;;;;;;;;;7.87;56.99;100735.94;6000834;23;99134;-77
2021/01/06 08:07:49;;;;;;;;;;;;;;;7.95;57.99;100741.84;5999940;23;99150;-77
2021/01/06 08:10:22;;;;;;;;;;;;;;;7.85;57.75;100743.00;6001288;23;96748;-77
2021/01/06 08:12:50;;;;;;;;;;;;;;;8.38;55.97;100733.78;5994619;23;97196;-78
2021/01/06 08:15:19;;;;;;;;;;;;;;;8.38;55.45;100742.53;5998879;23;99047;-77
2021/01/06 08:17:50;;;;;;;;;;;;;;;8.07;56.75;100738.94;5997545;23;99024;-78
2021/01/06 08:20:20;;;;;;;;;;;;;;;8.06;56.93;100733.72;5998572;23;97123;-77
2021/01/06 08:22:56;;;;;;;;;;;;;;;8.07;56.77;100732.81;5999142;23;96688;-77
2021/01/06 08:25:25;;;;;;;;;;;;;;;8.27;56.07;100730.53;5999257;23;99334;-78
2021/01/06 08:27:50;;;;;;;;;;;;;;;8.10;56.31;100736.22;6005404;23;99204;-78
2021/01/06 08:30:18;;;;;;;;;;;;;;;7.87;56.58;100741.19;6028110;23;97249;-78
2021/01/06 08:32:45;;;;;;;;;;;;;;;7.98;56.37;100739.16;6003320;23;97423;-76
2021/01/06 08:35:16;;;;;;;;;;;;;;;8.13;56.37;100743.19;6027926;23;99060;-76
2021/01/06 08:37:42;;;;;;;;;;;;;;;7.77;56.78;100739.69;6028829;23;99704;-77
2021/01/06 08:40:28;;;;;;;;;;;;;;;8.21;55.76;100752.59;6028623;23;96681;-76
2021/01/06 08:42:55;;;;;;;;;;;;;;;8.13;56.26;100744.06;6029045;23;96730;-77
2021/01/06 08:45:23;;;;;;;;;;;;;;;7.52;57.12;100750.78;6028341;23;97225;-76
2021/01/06 08:47:49;;;;;;;;;;;;;;;7.75;56.93;100744.09;6028990;23;98923;-78
2021/01/06 08:50:28;;;;;;;;;;;;;;;8.06;56.05;100746.88;6029481;23;96852;-78
2021/01/06 08:53:02;;;;;;;;;;;;;;;7.64;57.13;100743.50;6027862;23;96877;-76
2021/01/06 08:55:30;;;;;;;;;;;;;;;8.06;56.49;100752.13;6027455;23;99004;-76
2021/01/06 08:57:58;;;;;;;;;;;;;;;8.19;55.92;100756.19;6027032;23;98964;-76
2021/01/06 09:00:25;;;;;;;;;;;;;;;8.44;55.43;100753.81;6027128;23;96692;-78
2021/01/06 09:02:53;;;;;;;;;;;;;;;8.46;54.52;100755.50;6027796;23;96813;-77
2021/01/06 09:05:38;;;;;;;;;;;;;;;7.97;56.62;100756.72;6027168;23;98949;-78
2021/01/06 09:08:09;;;;;;;;;;;;;;;7.97;56.97;100753.22;6028267;23;98270;-78
2021/01/06 09:10:38;;;;;;;;;;;;;;;8.16;56.18;100757.13;6028438;23;96638;-78
2021/01/06 09:13:05;;;;;;;;;;;;;;;8.10;56.25;100759.91;6027515;23;96857;-78
2021/01/06 09:15:34;;;;;;;;;;;;;;;8.65;54.91;100755.88;6028452;23;99072;-78
2021/01/06 09:18:04;;;;;;;;;;;;;;;8.48;54.80;100758.94;6027465;23;98133;-77
2021/01/06 09:20:33;;;;;;;;;;;;;;;8.16;55.19;100754.47;6028027;23;97054;-78
2021/01/06 09:22:59;;;;;;;;;;;;;;;8.07;55.63;100752.09;6028109;23;97108;-77
2021/01/06 09:25:27;;;;;;;;;;;;;;;8.04;55.50;100757.44;6028239;23;98914;-79
2021/01/06 09:27:57;;;;;;;;;;;;;;;8.25;55.29;100762.16;6027554;23;99488;-77
2021/01/06 09:30:26;;;;;;;;;;;;;;;8.32;55.31;100755.88;6028419;23;96693;-78
2021/01/06 09:32:54;;;;;;;;;;;;;;;7.94;56.62;100764.66;6029352;23;96834;-78
2021/01/06 09:35:21;;;;;;;;;;;;;;;8.50;55.39;100764.19;6028963;23;99418;-77
2021/01/06 09:37:51;;;;;;;;;;;;;;;8.47;54.97;100757.19;6029756;23;97544;-76
2021/01/06 09:40:19;;;;;;;;;;;;;;;8.36;55.24;100752.25;6029934;23;96725;-78
2021/01/06 09:42:58;;;;;;;;;;;;;;;8.25;55.68;100754.25;6029354;23;96821;-78
2021/01/06 09:45:26;;;;;;;;;;;;;;;8.52;54.91;100746.56;6029104;23;99226;-78
2021/01/06 09:48:00;;;;;;;;;;;;;;;8.86;54.35;100752.63;6029118;23;98851;-78
2021/01/06 09:50:28;;;;;;;;;;;;;;;8.65;54.21;100759.38;6030168;23;96744;-78
2021/01/06 09:55:46;;;;;;;;;;;;;;;8.69;54.59;100745.19;6031509;23;97791;-78
2021/01/06 09:58:14;;;;;;;;;;;;;;;8.97;54.18;100747.91;6032150;23;98925;-76
2021/01/06 10:00:46;;;;;;;;;;;;;;;8.94;54.14;100741.84;6039081;23;96980;-77
2021/01/06 10:03:16;;;;;;;;;;;;;;;8.53;54.82;100746.53;6044214;23;96781;-77
2021/01/06 10:05:51;;;;;;;;;;;;;;;8.55;54.49;100742.06;6042877;23;97909;-78
2021/01/06 10:08:24;;;;;;;;;;;;;;;8.81;54.07;100741.34;6030389;23;96719;-77
2021/01/06 10:10:53;;;;;;;;;;;;;;;9.27;52.72;100735.59;6029622;23;96798;-77
2021/01/06 10:13:26;;;;;;;;;;;;;;;8.99;53.21;100737.34;6027545;23;97186;-77
2021/01/06 10:15:58;;;;;;;;;;;;;;;9.10;53.46;100730.84;6031832;23;98325;-76
2021/01/06 10:18:32;;;;;;;;;;;;;;;8.70;54.01;100724.97;6043665;23;98054;-77
2021/01/06 10:21:00;;;;;;;;;;;;;;;8.86;54.02;100725.44;6049745;23;96221;-78
2021/01/06 10:23:34;;;;;;;;;;;;;;;9.03;53.71;100720.50;6049642;23;96830;-77
2021/01/06 10:26:04;;;;;;;;;;;;;;;8.64;55.39;100720.75;6049592;23;98962;-76
2021/01/06 10:28:33;;;;;;;;;;;;;;;8.59;55.47;100719.16;6038504;23;98383;-77
2021/01/06 10:31:02;;;;;;;;;;;;;;;9.03;54.15;100713.47;6035941;23;97191;-78
2021/01/06 10:33:29;;;;;;;;;;;;;;;8.94;53.40;100712.88;6033994;23;96730;-78
2021/01/06 10:36:07;;;;;;;;;;;;;;;9.12;53.29;100705.28;6032004;23;100846;-78
2021/01/06 10:38:37;;;;;;;;;;;;;;;8.86;54.15;100706.97;6035558;23;99764;-77
2021/01/06 10:41:20;;;;;;;;;;;;;;;8.72;54.69;100710.88;6034900;23;96780;-78
2021/01/06 10:43:47;;;;;;;;;;;;;;;8.80;54.10;100706.22;6039032;23;96757;-77
2021/01/06 10:46:31;;;;;;;;;;;;;;;9.03;53.99;100707.34;6041281;23;99416;-78
2021/01/06 10:49:01;;;;;;;;;;;;;;;8.62;54.62;100695.34;6040983;23;99460;-78
2021/01/06 10:51:46;;;;;;;;;;;;;;;8.71;54.60;100701.25;6052733;23;96526;-76
2021/01/06 10:54:13;;;;;;;;;;;;;;;8.79;53.83;100688.69;6052750;23;96841;-76
2021/01/06 10:56:40;;;;;;;;;;;;;;;9.00;53.20;100687.19;6051999;23;97904;-77
2021/01/06 10:59:06;;;;;;;;;;;;;;;9.00;53.29;100689.81;6035108;23;97838;-78
2021/01/06 11:01:48;;;;;;;;;;;;;;;9.24;53.02;100682.09;6029498;23;97161;-79
2021/01/06 11:04:21;;;;;;;;;;;;;;;9.17;52.91;100677.03;6028918;23;96794;-80
2021/01/06 11:06:51;;;;;;;;;;;;;;;9.07;53.10;100682.59;6029038;23;99295;-79
2021/01/06 11:09:25;;;;;;;;;;;;;;;9.23;52.79;100673.31;6029235;23;99905;-77
2021/01/06 11:12:06;;;;;;;;;;;;;;;9.04;53.92;100678.31;6031752;23;96969;-78
2021/01/06 11:14:48;;;;;;;;;;;;;;;8.51;54.62;100684.25;6036453;23;96751;-78
2021/01/06 11:17:23;;;;;;;;;;;;;;;8.97;53.50;100665.34;6039341;23;99782;-79
2021/01/06 11:19:53;;;;;;;;;;;;;;;8.83;53.65;100668.41;6035386;23;99183;-79
2021/01/06 11:22:21;;;;;;;;;;;;;;;8.97;53.61;100670.63;6030586;23;97196;-77
2021/01/06 11:24:50;;;;;;;;;;;;;;;8.58;54.37;100675.28;6028730;23;97060;-76
2021/01/06 11:27:32;;;;;;;;;;;;;;;8.75;53.46;100663.34;6027285;23;97397;-78
2021/01/06 11:30:01;;;;;;;;;;;;;;;8.86;53.65;100672.72;6027137;23;98896;-77
2021/01/06 11:32:32;;;;;;;;;;;;;;;8.47;54.71;100665.03;6026575;23;114327;-77
2021/01/06 11:35:17;;;;;;;;;;;;;;;8.49;53.41;100657.97;6028230;23;96697;-78
2021/01/06 11:37:44;;;;;;;;;;;;;;;8.97;52.38;100653.03;6027367;23;98131;-78
2021/01/06 11:40:13;;;;;;;;;;;;;;;9.06;52.12;100649.25;6027376;23;99232;-77
2021/01/06 11:42:47;;;;;;;;;;;;;;;8.65;53.12;100650.50;6027842;23;97013;-77
2021/01/06 11:45:14;;;;;;;;;;;;;;;8.59;53.62;100650.69;6029287;23;96711;-77
2021/01/06 11:47:45;;;;;;;;;;;;;;;8.82;52.98;100642.09;6029082;23;99057;-77
2021/01/06 11:50:26;;;;;;;;;;;;;;;8.77;53.14;100644.88;6030982;23;97726;-78
2021/01/06 11:53:06;;;;;;;;;;;;;;;8.89;52.89;100641.88;6024215;23;97371;-78
2021/01/06 11:55:36;;;;;;;;;;;;;;;8.69;53.49;100644.22;6031097;23;96778;-77
2021/01/06 11:58:13;;;;;;;;;;;;;;;8.34;53.88;100643.44;6032210;23;96649;-76
2021/01/06 12:00:53;;;;;;;;;;;;;;;8.75;52.85;100630.88;6035462;23;97839;-77
2021/01/06 12:03:22;;;;;;;;;;;;;;;8.76;53.02;100630.84;6035333;23;96688;-77
2021/01/06 12:05:57;;;;;;;;;;;;;;;7.67;55.49;100627.72;6031027;23;96770;-77
2021/01/06 12:08:31;;;;;;;;;;;;;;;8.52;54.74;100621.03;6030626;23;100730;-78
2021/01/06 12:11:04;;;;;;;;;;;;;;;8.31;53.90;100617.22;6029845;23;97047;-78
2021/01/06 12:13:34;;;;;;;;;;;;;;;8.50;54.25;100607.03;6030513;23;96871;-79
2021/01/06 12:16:06;;;;;;;;;;;;;;;8.79;53.50;100609.66;6029222;23;97058;-79
2021/01/06 12:18:36;;;;;;;;;;;;;;;8.65;53.63;100611.84;6028474;23;97838;-79
2021/01/06 12:21:03;;;;;;;;;;;;;;;8.72;53.33;100607.28;6030957;23;98666;-79
2021/01/06 12:23:41;;;;;;;;;;;;;;;8.39;53.73;100604.72;6029156;23;96849;-79
2021/01/06 12:26:22;;;;;;;;;;;;;;;8.56;53.83;100603.34;6034572;23;96820;-79
2021/01/06 12:28:54;;;;;;;;;;;;;;;8.12;54.95;100602.81;6044254;23;97103;-76
2021/01/06 12:31:24;;;;;;;;;;;;;;;8.27;54.59;100610.28;6048385;23;100127;-77
2021/01/06 12:34:03;;;;;;;;;;;;;;;8.37;54.63;100611.78;6047595;23;96561;-77
2021/01/06 12:36:31;;;;;;;;;;;;;;;8.61;53.91;100611.97;6039712;23;96800;-77
2021/01/06 12:39:12;;;;;;;;;;;;;;;8.46;54.40;100602.78;6034117;23;96899;-77
2021/01/06 12:41:48;;;;;;;;;;;;;;;8.23;53.99;100602.50;6033603;23;99515;-77
2021/01/06 12:44:19;;;;;;;;;;;;;;;8.06;54.90;100602.13;6036452;23;96700;-78
2021/01/06 12:46:47;;;;;;;;;;;;;;;8.32;54.44;100597.91;6035436;23;96811;-79
2021/01/06 12:49:43;;;;;;;;;;;;;;;8.46;53.77;100599.28;6032067;23;98891;-78
2021/01/06 12:52:24;;;;;;;;;;;;;;;8.20;54.90;100608.75;5914155;23;96962;-78
2021/01/06 12:54:54;;;;;;;;;;;;;;;8.27;54.59;100607.63;6015626;23;97067;-78
2021/01/06 12:57:23;;;;;;;;;;;;;;;8.53;54.39;100608.72;6042721;23;96839;-79
2021/01/06 12:59:51;;;;;;;;;;;;;;;8.75;53.90;100607.16;6038101;23;98501;-77
2021/01/06 13:02:23;;;;;;;;;;;;;;;8.70;53.57;100603.81;6027038;23;99326;-79
2021/01/06 13:04:50;;;;;;;;;;;;;;;8.82;53.44;100605.19;6029412;23;96859;-78